createdAt,value
2017-03-16T00:00:53.774Z,41.77
2017-03-16T00:01:59.366Z,40.13
2017-03-16T00:03:05.665Z,42.33
2017-03-16T00:04:10.409Z,38.78
2017-03-16T00:05:15.873Z,43.35
2017-03-16T00:06:20.547Z,42.48
2017-03-16T00:07:26.046Z,47.02
2017-03-16T00:08:31.378Z,44.75
2017-03-16T00:09:37.657Z,45.93
2017-03-16T00:10:43.241Z,41.77
2017-03-16T00:11:48.061Z,43.05
2017-03-16T00:12:53.604Z,42.05
2017-03-16T00:13:59.206Z,40.87
2017-03-16T00:15:03.939Z,43.05
2017-03-16T00:16:09.517Z,44.15
2017-03-16T00:17:14.889Z,41.20
2017-03-16T00:18:19.661Z,44.28
2017-03-16T00:19:25.155Z,43.22
2017-03-16T00:20:31.362Z,48.87
2017-03-16T00:21:36.265Z,49.67
2017-03-16T00:22:41.865Z,31.58
2017-03-16T00:23:47.365Z,34.63
2017-03-16T00:24:52.962Z,42.05
2017-03-16T00:25:58.450Z,43.92
2017-03-16T00:27:03.245Z,48.50
2017-03-16T00:28:08.845Z,47.88
2017-03-16T00:29:15.113Z,50.02
2017-03-16T00:30:19.798Z,47.32
2017-03-16T00:31:26.154Z,42.72
2017-03-16T00:32:31.129Z,44.73
2017-03-16T00:33:36.759Z,43.12
2017-03-16T00:34:41.489Z,39.05
2017-03-16T00:35:46.958Z,40.30
2017-03-16T00:36:52.547Z,36.90
2017-03-16T00:37:58.889Z,41.17
2017-03-16T00:39:04.002Z,43.07
2017-03-16T00:40:09.518Z,37.73
2017-03-16T00:41:15.898Z,40.90
2017-03-16T00:42:21.437Z,38.70
2017-03-16T00:43:27.049Z,39.30
2017-03-16T00:44:31.795Z,41.32
2017-03-16T00:45:38.198Z,37.47
2017-03-16T00:46:43.850Z,36.95
2017-03-16T00:47:48.549Z,35.53
2017-03-16T00:48:54.153Z,41.93
2017-03-16T00:50:00.573Z,39.08
2017-03-16T00:51:06.137Z,36.17
2017-03-16T00:52:13.726Z,38.97
2017-03-16T00:53:19.141Z,39.95
2017-03-16T00:54:23.809Z,38.05
2017-03-16T00:55:29.394Z,43.82
2017-03-16T00:56:35.789Z,42.20
2017-03-16T00:57:40.533Z,42.62
2017-03-16T00:58:46.101Z,39.82
2017-03-16T00:59:52.469Z,36.80
2017-03-16T01:00:57.997Z,39.30
2017-03-16T01:02:03.481Z,43.30
2017-03-16T01:03:08.337Z,42.43
2017-03-16T01:04:13.862Z,41.30
2017-03-16T01:05:19.425Z,41.20
2017-03-16T01:06:24.902Z,35.72
2017-03-16T01:07:31.190Z,46.45
2017-03-16T01:08:36.641Z,39.48
2017-03-16T01:09:42.214Z,40.27
2017-03-16T01:10:47.098Z,39.42
2017-03-16T01:11:53.460Z,39.30
2017-03-16T01:12:58.250Z,40.07
2017-03-16T01:14:03.742Z,38.88
2017-03-16T01:15:10.034Z,41.50
2017-03-16T01:16:15.561Z,37.52
2017-03-16T01:17:25.349Z,38.68
2017-03-16T01:18:31.770Z,36.33
2017-03-16T01:19:36.417Z,36.33
2017-03-16T01:20:41.877Z,39.57
2017-03-16T01:21:46.757Z,35.37
2017-03-16T01:22:51.482Z,36.12
2017-03-16T01:23:56.207Z,40.05
2017-03-16T01:25:02.486Z,37.90
2017-03-16T01:26:07.234Z,38.58
2017-03-16T01:27:12.796Z,42.38
2017-03-16T01:28:18.378Z,36.35
2017-03-16T01:29:24.767Z,41.58
2017-03-16T01:30:29.530Z,35.23
2017-03-16T01:31:34.273Z,34.88
2017-03-16T01:32:40.621Z,37.72
2017-03-16T01:33:45.405Z,45.15
2017-03-16T01:34:50.829Z,34.15
2017-03-16T01:35:56.394Z,32.45
2017-03-16T01:37:01.062Z,40.43
2017-03-16T01:38:06.631Z,40.03
2017-03-16T01:39:11.274Z,35.57
2017-03-16T01:40:16.915Z,40.85
2017-03-16T01:41:22.393Z,41.33
2017-03-16T01:42:27.854Z,35.18
2017-03-16T01:43:32.609Z,33.15
2017-03-16T01:44:38.194Z,45.57
2017-03-16T01:45:43.829Z,34.18
2017-03-16T01:46:50.254Z,39.53
2017-03-16T01:47:55.849Z,39.85
2017-03-16T01:49:02.203Z,44.00
2017-03-16T01:50:07.085Z,43.70
2017-03-16T01:51:12.609Z,38.98
2017-03-16T01:52:18.806Z,39.95
2017-03-16T01:53:23.726Z,44.28
2017-03-16T01:54:28.869Z,36.40
2017-03-16T01:55:34.709Z,42.33
2017-03-16T01:56:39.522Z,38.85
2017-03-16T01:57:45.078Z,35.50
2017-03-16T01:58:50.681Z,36.05
2017-03-16T01:59:56.234Z,39.87
2017-03-16T02:01:02.482Z,35.65
2017-03-16T02:02:08.293Z,36.92
2017-03-16T02:03:13.750Z,36.75
2017-03-16T02:04:20.127Z,45.78
2017-03-16T02:05:25.893Z,49.15
2017-03-16T02:06:30.765Z,59.37
2017-03-16T02:07:36.389Z,46.70
2017-03-16T02:08:41.970Z,41.88
2017-03-16T02:09:46.653Z,45.73
2017-03-16T02:10:52.277Z,67.90
2017-03-16T02:11:57.845Z,87.92
2017-03-16T02:13:03.463Z,83.82
2017-03-16T02:14:08.110Z,60.22
2017-03-16T02:15:12.857Z,94.50
2017-03-16T02:16:18.293Z,79.78
2017-03-16T02:17:23.024Z,67.88
2017-03-16T02:18:29.425Z,59.43
2017-03-16T02:19:34.309Z,43.13
2017-03-16T02:20:39.941Z,42.75
2017-03-16T02:21:46.242Z,41.38
2017-03-16T02:22:51.166Z,39.27
2017-03-16T02:23:57.449Z,38.62
2017-03-16T02:25:02.301Z,36.35
2017-03-16T02:26:07.850Z,36.20
2017-03-16T02:27:13.422Z,38.55
2017-03-16T02:28:19.697Z,44.77
2017-03-16T02:29:24.453Z,45.90
2017-03-16T02:30:29.921Z,39.45
2017-03-16T02:31:35.550Z,32.92
2017-03-16T02:32:41.877Z,46.90
2017-03-16T02:33:46.729Z,34.62
2017-03-16T02:34:52.289Z,36.70
2017-03-16T02:35:56.969Z,37.15
2017-03-16T02:37:03.237Z,41.77
2017-03-16T02:38:08.057Z,37.80
2017-03-16T02:39:19.661Z,35.18
2017-03-16T02:40:25.189Z,35.98
2017-03-16T02:41:34.889Z,34.30
2017-03-16T02:42:40.918Z,38.12
2017-03-16T02:43:46.553Z,33.40
2017-03-16T02:44:51.382Z,34.75
2017-03-16T02:45:57.713Z,35.62
2017-03-16T02:47:03.325Z,37.10
2017-03-16T02:48:08.877Z,41.52
2017-03-16T02:49:14.450Z,38.37
2017-03-16T02:50:20.999Z,36.80
2017-03-16T02:51:27.406Z,34.73
2017-03-16T02:52:32.229Z,35.03
2017-03-16T02:53:37.853Z,36.23
2017-03-16T02:54:43.273Z,34.17
2017-03-16T02:55:47.941Z,35.40
2017-03-16T02:56:54.194Z,42.42
2017-03-16T02:57:59.009Z,33.73
2017-03-16T02:59:03.693Z,41.27
2017-03-16T03:00:09.162Z,36.45
2017-03-16T03:01:14.749Z,37.08
2017-03-16T03:02:20.377Z,33.15
2017-03-16T03:03:25.954Z,35.10
2017-03-16T03:04:31.385Z,37.22
2017-03-16T03:05:36.990Z,40.45
2017-03-16T03:06:43.343Z,38.93
2017-03-16T03:07:48.973Z,36.28
2017-03-16T03:08:53.830Z,39.53
2017-03-16T03:09:59.358Z,32.40
2017-03-16T03:11:05.005Z,39.57
2017-03-16T03:12:09.673Z,37.50
2017-03-16T03:13:15.337Z,31.78
2017-03-16T03:14:20.621Z,34.60
2017-03-16T03:15:26.137Z,35.03
2017-03-16T03:16:31.741Z,36.60
2017-03-16T03:17:37.993Z,34.83
2017-03-16T03:18:42.959Z,35.37
2017-03-16T03:19:49.130Z,39.38
2017-03-16T03:20:53.878Z,37.93
2017-03-16T03:21:59.346Z,34.63
2017-03-16T03:23:04.049Z,32.05
2017-03-16T03:24:10.368Z,36.48
2017-03-16T03:25:15.041Z,34.18
2017-03-16T03:26:19.730Z,38.00
2017-03-16T03:27:25.297Z,39.93
2017-03-16T03:28:30.763Z,35.10
2017-03-16T03:29:37.154Z,38.75
2017-03-16T03:30:41.993Z,38.52
2017-03-16T03:31:48.297Z,39.62
2017-03-16T03:32:53.249Z,35.95
2017-03-16T03:33:59.529Z,37.95
2017-03-16T03:35:04.461Z,42.95
2017-03-16T03:36:09.970Z,47.60
2017-03-16T03:37:15.546Z,37.90
2017-03-16T03:38:21.026Z,42.23
2017-03-16T03:39:29.918Z,42.00
2017-03-16T03:40:35.406Z,37.97
2017-03-16T03:41:41.081Z,40.43
2017-03-16T03:42:46.681Z,41.47
2017-03-16T03:43:51.589Z,48.62
2017-03-16T03:44:57.059Z,42.83
2017-03-16T03:46:03.519Z,44.02
2017-03-16T03:47:08.217Z,47.05
2017-03-16T03:48:13.869Z,45.63
2017-03-16T03:49:18.529Z,45.30
2017-03-16T03:50:24.471Z,41.30
2017-03-16T03:51:29.836Z,46.40
2017-03-16T03:52:35.324Z,44.02
2017-03-16T03:53:41.629Z,40.82
2017-03-16T03:54:46.246Z,41.10
2017-03-16T03:55:51.802Z,47.52
2017-03-16T03:56:58.122Z,43.00
2017-03-16T03:58:02.826Z,44.73
2017-03-16T04:00:22.130Z,45.45
2017-03-16T04:01:28.157Z,39.53
2017-03-16T04:02:33.995Z,43.60
2017-03-16T04:03:38.673Z,44.58
2017-03-16T04:04:44.196Z,43.07
2017-03-16T04:05:49.790Z,42.58
2017-03-16T04:06:55.250Z,42.42
2017-03-16T04:08:01.702Z,43.77
2017-03-16T04:09:06.657Z,48.78
2017-03-16T04:10:12.025Z,40.95
2017-03-16T04:11:17.556Z,39.28
2017-03-16T04:12:22.237Z,39.05
2017-03-16T04:13:27.004Z,38.10
2017-03-16T04:14:32.594Z,41.77
2017-03-16T04:15:37.977Z,43.07
2017-03-16T04:16:43.478Z,37.42
2017-03-16T04:17:49.032Z,37.92
2017-03-16T04:18:55.249Z,42.28
2017-03-16T04:20:00.021Z,43.67
2017-03-16T04:21:06.385Z,44.85
2017-03-16T04:22:11.338Z,37.62
2017-03-16T04:23:16.863Z,42.20
2017-03-16T04:24:23.141Z,39.67
2017-03-16T04:25:28.105Z,41.48
2017-03-16T04:26:32.874Z,41.65
2017-03-16T04:27:38.289Z,40.63
2017-03-16T04:28:43.930Z,35.87
2017-03-16T04:29:49.537Z,39.87
2017-03-16T04:30:54.906Z,40.22
2017-03-16T04:32:00.533Z,42.32
2017-03-16T04:33:06.210Z,39.92
2017-03-16T04:34:12.529Z,39.63
2017-03-16T04:35:17.301Z,40.78
2017-03-16T04:36:22.794Z,44.23
2017-03-16T04:37:28.996Z,35.95
2017-03-16T04:38:33.877Z,39.72
2017-03-16T04:39:39.461Z,37.22
2017-03-16T04:40:45.033Z,48.42
2017-03-16T04:41:49.775Z,40.08
2017-03-16T04:42:56.084Z,42.10
2017-03-16T04:44:00.915Z,35.88
2017-03-16T04:45:06.678Z,39.02
2017-03-16T04:46:12.093Z,40.03
2017-03-16T04:47:17.646Z,43.65
2017-03-16T04:48:23.189Z,44.63
2017-03-16T04:49:28.689Z,52.38
2017-03-16T04:50:34.291Z,48.23
2017-03-16T04:51:40.518Z,42.12
2017-03-16T04:52:45.298Z,40.10
2017-03-16T04:53:50.798Z,46.57
2017-03-16T04:54:56.421Z,37.87
2017-03-16T04:56:01.985Z,38.20
2017-03-16T04:57:07.618Z,41.92
2017-03-16T04:58:13.945Z,47.90
2017-03-16T04:59:18.750Z,37.30
2017-03-16T05:00:24.186Z,36.28
2017-03-16T05:01:30.565Z,39.85
2017-03-16T05:02:35.338Z,33.32
2017-03-16T05:03:40.741Z,37.38
2017-03-16T05:04:46.987Z,35.57
2017-03-16T05:05:51.901Z,40.18
2017-03-16T05:06:58.253Z,36.98
2017-03-16T05:08:03.060Z,35.65
2017-03-16T05:09:08.620Z,37.60
2017-03-16T05:10:13.394Z,35.45
2017-03-16T05:11:18.994Z,39.10
2017-03-16T05:12:24.453Z,39.00
2017-03-16T05:13:29.178Z,38.63
2017-03-16T05:14:35.360Z,40.63
2017-03-16T05:15:40.985Z,38.32
2017-03-16T05:16:46.658Z,34.37
2017-03-16T05:17:51.533Z,38.08
2017-03-16T05:18:58.658Z,63.05
2017-03-16T05:20:03.494Z,76.27
2017-03-16T05:21:08.993Z,45.87
2017-03-16T05:22:14.462Z,48.07
2017-03-16T05:23:20.002Z,45.28
2017-03-16T05:24:25.014Z,44.40
2017-03-16T05:25:30.462Z,37.63
2017-03-16T05:26:35.970Z,35.92
2017-03-16T05:27:41.534Z,42.05
2017-03-16T05:28:47.814Z,37.23
2017-03-16T05:29:52.857Z,35.12
2017-03-16T05:30:58.395Z,40.33
2017-03-16T05:32:07.089Z,36.82
2017-03-16T05:33:13.101Z,41.15
2017-03-16T05:34:18.678Z,37.12
2017-03-16T05:35:25.674Z,43.43
2017-03-16T05:36:31.017Z,52.45
2017-03-16T05:37:37.263Z,52.02
2017-03-16T05:38:42.807Z,43.82
2017-03-16T05:39:48.337Z,45.48
2017-03-16T05:40:53.962Z,40.23
2017-03-16T05:41:58.740Z,43.15
2017-03-16T05:43:04.861Z,40.92
2017-03-16T05:44:09.732Z,37.90
2017-03-16T05:45:16.046Z,40.80
2017-03-16T05:46:20.878Z,39.33
2017-03-16T05:47:27.109Z,44.57
2017-03-16T05:48:31.881Z,40.18
2017-03-16T05:49:38.091Z,37.67
2017-03-16T05:50:42.958Z,37.23
2017-03-16T05:51:49.225Z,40.62
2017-03-16T05:52:54.826Z,35.90
2017-03-16T05:54:00.313Z,35.80
2017-03-16T05:55:06.685Z,37.70
2017-03-16T05:56:11.614Z,41.37
2017-03-16T05:57:17.257Z,39.27
2017-03-16T05:58:24.226Z,35.85
2017-03-16T05:59:29.886Z,36.23
2017-03-16T06:00:35.646Z,35.72
2017-03-16T06:01:41.113Z,41.62
2017-03-16T06:02:45.882Z,42.55
2017-03-16T06:03:51.427Z,40.95
2017-03-16T06:04:57.686Z,46.93
2017-03-16T06:06:02.616Z,39.47
2017-03-16T06:07:08.085Z,41.03
2017-03-16T06:08:12.909Z,37.20
2017-03-16T06:09:19.367Z,40.70
2017-03-16T06:10:24.658Z,45.07
2017-03-16T06:11:30.024Z,40.03
2017-03-16T06:12:41.226Z,46.87
2017-03-16T06:13:46.764Z,50.90
2017-03-16T06:14:52.290Z,47.27
2017-03-16T06:15:58.661Z,45.22
2017-03-16T06:17:04.209Z,47.17
2017-03-16T06:18:09.707Z,41.03
2017-03-16T06:19:14.614Z,40.78
2017-03-16T06:20:20.212Z,45.47
2017-03-16T06:21:25.681Z,38.15
2017-03-16T06:22:30.365Z,40.55
2017-03-16T06:23:35.978Z,43.30
2017-03-16T06:24:41.553Z,40.22
2017-03-16T06:25:47.092Z,43.73
2017-03-16T06:26:51.755Z,38.67
2017-03-16T06:27:57.437Z,41.22
2017-03-16T06:29:02.930Z,38.62
2017-03-16T06:30:08.512Z,40.40
2017-03-16T06:31:14.794Z,49.47
2017-03-16T06:32:19.573Z,39.80
2017-03-16T06:33:25.188Z,44.58
2017-03-16T06:34:30.617Z,47.75
2017-03-16T06:35:36.837Z,41.73
2017-03-16T06:36:42.264Z,44.38
2017-03-16T06:37:47.347Z,39.88
2017-03-16T06:38:52.898Z,39.12
2017-03-16T06:39:58.528Z,39.53
2017-03-16T06:41:04.972Z,37.83
2017-03-16T06:42:10.469Z,40.30
2017-03-16T06:43:15.354Z,48.10
2017-03-16T06:44:21.041Z,42.18
2017-03-16T06:45:27.397Z,35.22
2017-03-16T06:46:32.390Z,35.90
2017-03-16T06:47:38.948Z,32.10
2017-03-16T06:48:44.533Z,32.90
2017-03-16T06:49:50.760Z,36.37
2017-03-16T06:50:56.378Z,33.27
2017-03-16T06:52:01.901Z,36.82
2017-03-16T06:53:07.419Z,33.85
2017-03-16T06:54:12.187Z,36.53
2017-03-16T06:55:17.680Z,31.38
2017-03-16T06:56:23.370Z,36.35
2017-03-16T06:57:28.997Z,34.38
2017-03-16T06:58:37.717Z,34.87
2017-03-16T06:59:44.061Z,32.65
2017-03-16T07:00:48.933Z,35.28
2017-03-16T07:01:54.530Z,31.67
2017-03-16T07:03:00.970Z,33.73
2017-03-16T07:04:05.988Z,37.58
2017-03-16T07:05:12.389Z,39.00
2017-03-16T07:06:18.045Z,31.88
2017-03-16T07:07:22.893Z,31.37
2017-03-16T07:08:28.490Z,33.82
2017-03-16T07:09:33.949Z,31.42
2017-03-16T07:10:38.596Z,38.97
2017-03-16T07:11:45.126Z,35.63
2017-03-16T07:12:49.926Z,36.45
2017-03-16T07:13:56.320Z,37.97
2017-03-16T07:15:01.838Z,34.88
2017-03-16T07:16:06.701Z,38.15
2017-03-16T07:17:12.953Z,38.07
2017-03-16T07:18:18.417Z,34.60
2017-03-16T07:19:25.065Z,36.08
2017-03-16T07:20:30.627Z,39.15
2017-03-16T07:21:36.405Z,40.50
2017-03-16T07:22:41.080Z,43.20
2017-03-16T07:23:47.354Z,41.83
2017-03-16T07:24:52.155Z,32.52
2017-03-16T07:25:57.685Z,34.93
2017-03-16T07:27:03.216Z,37.12
2017-03-16T07:28:08.670Z,43.37
2017-03-16T07:29:16.314Z,37.10
2017-03-16T07:30:22.789Z,37.87
2017-03-16T07:31:27.585Z,40.48
2017-03-16T07:32:33.226Z,48.07
2017-03-16T07:33:38.918Z,43.17
2017-03-16T07:34:44.389Z,41.65
2017-03-16T07:35:50.809Z,43.17
2017-03-16T07:37:01.037Z,37.93
2017-03-16T07:38:07.093Z,36.55
2017-03-16T07:39:25.713Z,36.95
2017-03-16T07:40:30.527Z,40.68
2017-03-16T07:41:36.953Z,39.70
2017-03-16T07:42:42.617Z,42.05
2017-03-16T07:43:48.145Z,41.03
2017-03-16T07:44:53.042Z,35.40
2017-03-16T07:45:57.829Z,38.70
2017-03-16T07:47:03.809Z,35.45
2017-03-16T07:48:08.934Z,39.35
2017-03-16T07:49:13.641Z,38.47
2017-03-16T07:50:19.351Z,37.35
2017-03-16T07:51:25.690Z,37.52
2017-03-16T07:52:30.501Z,35.78
2017-03-16T07:53:36.774Z,38.90
2017-03-16T07:54:42.455Z,40.62
2017-03-16T07:55:48.089Z,36.38
2017-03-16T07:56:52.924Z,37.33
2017-03-16T07:57:57.666Z,37.35
2017-03-16T07:59:03.306Z,36.28
2017-03-16T08:00:08.625Z,35.60
2017-03-16T08:01:13.462Z,36.25
2017-03-16T08:02:23.057Z,36.17
2017-03-16T08:03:29.414Z,35.03
2017-03-16T08:04:35.348Z,32.07
2017-03-16T08:05:42.359Z,31.30
2017-03-16T08:06:47.712Z,36.48
2017-03-16T08:07:53.697Z,34.82
2017-03-16T08:08:59.085Z,39.58
2017-03-16T08:10:06.072Z,35.42
2017-03-16T08:11:11.251Z,31.80
2017-03-16T08:12:17.321Z,36.28
2017-03-16T08:13:22.493Z,31.17
2017-03-16T08:14:28.864Z,25.48
2017-03-16T08:15:33.740Z,31.05
2017-03-16T08:16:40.102Z,33.20
2017-03-16T08:17:44.832Z,32.35
2017-03-16T08:18:51.189Z,32.88
2017-03-16T08:19:56.837Z,36.00
2017-03-16T08:21:01.694Z,32.35
2017-03-16T08:22:07.176Z,31.80
2017-03-16T08:23:12.768Z,35.15
2017-03-16T08:24:19.185Z,30.60
2017-03-16T08:25:24.013Z,33.93
2017-03-16T08:26:29.573Z,26.92
2017-03-16T08:27:35.120Z,40.60
2017-03-16T08:28:41.480Z,29.37
2017-03-16T08:29:48.145Z,32.33
2017-03-16T08:30:59.605Z,31.22
2017-03-16T08:32:04.473Z,28.82
2017-03-16T08:33:09.911Z,30.78
2017-03-16T08:34:15.450Z,30.02
2017-03-16T08:35:20.137Z,35.55
2017-03-16T08:36:25.569Z,33.13
2017-03-16T08:37:31.805Z,33.22
2017-03-16T08:38:36.637Z,29.90
2017-03-16T08:39:42.788Z,33.70
2017-03-16T08:40:47.578Z,29.62
2017-03-16T08:41:53.133Z,34.13
2017-03-16T08:42:59.981Z,33.67
2017-03-16T08:44:05.138Z,32.18
2017-03-16T08:45:11.517Z,33.37
2017-03-16T08:46:17.142Z,33.80
2017-03-16T08:47:22.857Z,32.98
2017-03-16T08:48:28.449Z,35.48
2017-03-16T08:49:34.830Z,29.95
2017-03-16T08:50:40.246Z,37.27
2017-03-16T08:51:46.824Z,33.85
2017-03-16T08:52:51.803Z,26.55
2017-03-16T08:53:57.217Z,32.12
2017-03-16T08:55:03.622Z,29.38
2017-03-16T08:56:09.226Z,30.63
2017-03-16T08:57:13.866Z,35.13
2017-03-16T08:58:20.856Z,38.92
2017-03-16T08:59:26.918Z,34.18
2017-03-16T09:00:31.709Z,30.67
2017-03-16T09:01:37.270Z,31.72
2017-03-16T09:02:42.894Z,31.67
2017-03-16T09:03:49.241Z,30.48
2017-03-16T09:04:54.005Z,35.25
2017-03-16T09:06:00.247Z,33.20
2017-03-16T09:07:05.366Z,32.90
2017-03-16T09:08:10.886Z,32.52
2017-03-16T09:09:16.362Z,31.05
2017-03-16T09:10:21.949Z,34.27
2017-03-16T09:11:26.646Z,31.97
2017-03-16T09:12:31.393Z,28.63
2017-03-16T09:13:36.951Z,34.87
2017-03-16T09:14:42.389Z,34.23
2017-03-16T09:15:51.223Z,36.92
2017-03-16T09:16:56.717Z,31.62
2017-03-16T09:18:03.113Z,28.90
2017-03-16T09:19:08.625Z,36.07
2017-03-16T09:20:15.664Z,39.18
2017-03-16T09:21:20.470Z,33.50
2017-03-16T09:22:25.977Z,34.75
2017-03-16T09:23:30.639Z,34.00
2017-03-16T09:24:37.069Z,37.27
2017-03-16T09:25:41.798Z,35.47
2017-03-16T09:26:47.292Z,35.97
2017-03-16T09:27:52.947Z,30.68
2017-03-16T09:28:58.494Z,41.32
2017-03-16T09:30:03.985Z,32.62
2017-03-16T09:31:09.473Z,41.68
2017-03-16T09:32:14.101Z,39.28
2017-03-16T09:33:19.695Z,39.30
2017-03-16T09:34:25.125Z,36.85
2017-03-16T09:35:30.857Z,38.50
2017-03-16T09:36:36.510Z,39.93
2017-03-16T09:37:43.536Z,34.32
2017-03-16T09:38:48.767Z,39.78
2017-03-16T09:39:54.357Z,38.42
2017-03-16T09:40:59.973Z,40.90
2017-03-16T09:42:04.745Z,39.12
2017-03-16T09:43:10.142Z,36.82
2017-03-16T09:44:14.837Z,37.30
2017-03-16T09:45:19.677Z,32.27
2017-03-16T09:46:25.184Z,34.53
2017-03-16T09:47:32.430Z,38.98
2017-03-16T09:48:38.005Z,39.02
2017-03-16T09:49:42.820Z,35.47
2017-03-16T09:50:47.621Z,36.90
2017-03-16T09:51:53.446Z,36.28
2017-03-16T09:52:58.700Z,38.38
2017-03-16T09:54:04.082Z,41.33
2017-03-16T09:55:10.481Z,34.33
2017-03-16T09:56:16.037Z,38.07
2017-03-16T09:57:20.994Z,36.85
2017-03-16T09:58:27.973Z,38.88
2017-03-16T09:59:34.157Z,37.63
2017-03-16T10:00:38.872Z,35.52
2017-03-16T10:01:44.545Z,40.63
2017-03-16T10:02:50.013Z,36.92
2017-03-16T10:03:55.799Z,35.80
2017-03-16T10:05:01.151Z,39.25
2017-03-16T10:06:06.275Z,36.83
2017-03-16T10:07:11.361Z,33.95
2017-03-16T10:08:16.951Z,41.52
2017-03-16T10:09:23.287Z,40.50
2017-03-16T10:10:28.977Z,44.87
2017-03-16T10:11:34.349Z,37.47
2017-03-16T10:12:39.986Z,44.50
2017-03-16T10:13:45.510Z,42.28
2017-03-16T10:14:51.073Z,35.03
2017-03-16T10:15:56.679Z,40.45
2017-03-16T10:17:02.116Z,40.08
2017-03-16T10:18:07.606Z,34.98
2017-03-16T10:19:14.102Z,39.42
2017-03-16T10:20:20.489Z,39.30
2017-03-16T10:21:26.078Z,37.75
2017-03-16T10:22:30.878Z,38.33
2017-03-16T10:23:37.861Z,35.45
2017-03-16T10:24:42.950Z,37.45
2017-03-16T10:25:48.610Z,34.10
2017-03-16T10:26:54.210Z,38.18
2017-03-16T10:27:59.709Z,38.00
2017-03-16T10:29:05.230Z,35.92
2017-03-16T10:30:10.841Z,35.28
2017-03-16T10:31:16.366Z,37.60
2017-03-16T10:32:21.857Z,37.97
2017-03-16T10:33:27.517Z,35.87
2017-03-16T10:34:33.129Z,32.75
2017-03-16T10:35:39.363Z,44.23
2017-03-16T10:36:45.321Z,41.43
2017-03-16T10:37:51.401Z,35.80
2017-03-16T10:38:56.086Z,33.53
2017-03-16T10:40:01.703Z,35.82
2017-03-16T10:41:07.266Z,41.35
2017-03-16T10:42:12.687Z,40.12
2017-03-16T10:43:18.810Z,39.45
2017-03-16T10:44:23.773Z,37.47
2017-03-16T10:45:28.553Z,41.52
2017-03-16T10:46:34.124Z,39.23
2017-03-16T10:47:40.607Z,37.90
2017-03-16T10:48:46.264Z,48.53
2017-03-16T10:49:51.849Z,35.63
2017-03-16T10:50:57.349Z,36.55
2017-03-16T10:52:02.213Z,37.58
2017-03-16T10:53:07.968Z,44.48
2017-03-16T10:54:13.985Z,37.27
2017-03-16T10:55:19.254Z,37.62
2017-03-16T10:56:25.591Z,36.82
2017-03-16T10:57:32.030Z,38.57
2017-03-16T10:58:37.711Z,41.77
2017-03-16T10:59:44.005Z,38.93
2017-03-16T11:00:48.935Z,41.17
2017-03-16T11:01:53.713Z,37.37
2017-03-16T11:02:59.237Z,38.35
2017-03-16T11:04:06.719Z,36.83
2017-03-16T11:05:12.905Z,43.73
2017-03-16T11:06:17.693Z,45.73
2017-03-16T11:07:23.467Z,40.92
2017-03-16T11:08:28.950Z,37.25
2017-03-16T11:09:35.241Z,39.93
2017-03-16T11:10:39.913Z,40.83
2017-03-16T11:11:45.478Z,44.82
2017-03-16T11:12:51.866Z,40.68
2017-03-16T11:13:56.735Z,44.77
2017-03-16T11:15:02.409Z,43.17
2017-03-16T11:16:08.746Z,44.53
2017-03-16T11:17:14.402Z,40.03
2017-03-16T11:18:22.398Z,46.78
2017-03-16T11:19:27.560Z,47.43
2017-03-16T11:20:33.847Z,43.58
2017-03-16T11:21:39.426Z,45.27
2017-03-16T11:22:44.992Z,41.03
2017-03-16T11:23:49.769Z,41.63
2017-03-16T11:24:55.369Z,46.75
2017-03-16T11:26:01.782Z,40.92
2017-03-16T11:27:06.503Z,51.13
2017-03-16T11:28:12.730Z,46.35
2017-03-16T11:29:17.498Z,45.32
2017-03-16T11:30:23.869Z,45.85
2017-03-16T11:31:28.854Z,48.62
2017-03-16T11:32:35.830Z,45.63
2017-03-16T11:33:41.818Z,44.47
2017-03-16T11:34:47.509Z,48.78
2017-03-16T11:35:53.782Z,39.72
2017-03-16T11:36:59.006Z,45.72
2017-03-16T11:38:04.141Z,47.80
2017-03-16T11:39:09.747Z,49.18
2017-03-16T11:40:16.130Z,50.60
2017-03-16T11:41:20.877Z,42.63
2017-03-16T11:42:26.487Z,46.07
2017-03-16T11:43:32.014Z,46.20
2017-03-16T11:44:37.469Z,40.63
2017-03-16T11:45:43.114Z,37.83
2017-03-16T11:46:48.713Z,47.78
2017-03-16T11:47:55.842Z,47.67
2017-03-16T11:49:00.693Z,39.57
2017-03-16T11:50:06.188Z,47.18
2017-03-16T11:51:11.690Z,47.93
2017-03-16T11:52:16.540Z,46.22
2017-03-16T11:53:22.081Z,45.27
2017-03-16T11:54:27.538Z,48.23
2017-03-16T11:55:33.166Z,43.95
2017-03-16T11:56:38.671Z,47.53
2017-03-16T11:57:44.072Z,39.00
2017-03-16T11:58:50.373Z,47.63
2017-03-16T11:59:56.169Z,42.40
2017-03-16T12:01:01.166Z,45.62
2017-03-16T12:02:06.462Z,41.63
2017-03-16T12:03:12.015Z,45.72
2017-03-16T12:04:17.515Z,43.52
2017-03-16T12:05:22.217Z,50.60
2017-03-16T12:06:26.944Z,42.82
2017-03-16T12:07:35.576Z,44.02
2017-03-16T12:08:41.855Z,43.48
2017-03-16T12:09:47.581Z,41.40
2017-03-16T12:10:52.285Z,43.27
2017-03-16T12:11:58.205Z,40.28
2017-03-16T12:13:03.501Z,45.60
2017-03-16T12:14:09.141Z,40.22
2017-03-16T12:15:13.841Z,42.05
2017-03-16T12:16:20.681Z,42.30
2017-03-16T12:17:25.853Z,40.07
2017-03-16T12:18:32.165Z,43.18
2017-03-16T12:19:36.981Z,40.38
2017-03-16T12:20:44.121Z,41.87
2017-03-16T12:21:48.905Z,45.03
2017-03-16T12:22:54.385Z,41.75
2017-03-16T12:23:59.971Z,41.23
2017-03-16T12:25:05.861Z,48.50
2017-03-16T12:26:11.041Z,43.90
2017-03-16T12:27:16.609Z,41.63
2017-03-16T12:28:21.386Z,41.15
2017-03-16T12:29:27.014Z,40.68
2017-03-16T12:30:35.341Z,41.63
2017-03-16T12:31:41.029Z,53.32
2017-03-16T12:32:46.638Z,41.82
2017-03-16T12:33:53.241Z,46.15
2017-03-16T12:34:58.725Z,46.23
2017-03-16T12:36:04.970Z,42.65
2017-03-16T12:37:09.922Z,41.40
2017-03-16T12:38:16.266Z,41.98
2017-03-16T12:39:21.155Z,46.27
2017-03-16T12:40:27.233Z,39.62
2017-03-16T12:41:32.830Z,41.87
2017-03-16T12:42:37.643Z,41.17
2017-03-16T12:43:43.221Z,42.22
2017-03-16T12:44:49.537Z,42.80
2017-03-16T12:45:54.325Z,43.93
2017-03-16T12:46:59.825Z,50.53
2017-03-16T12:48:07.101Z,46.73
2017-03-16T12:49:13.393Z,38.27
2017-03-16T12:50:19.186Z,37.98
2017-03-16T12:51:24.750Z,41.42
2017-03-16T12:52:29.573Z,43.87
2017-03-16T12:53:35.125Z,46.90
2017-03-16T12:54:40.613Z,42.68
2017-03-16T12:55:46.198Z,48.13
2017-03-16T12:56:51.646Z,42.65
2017-03-16T12:57:59.076Z,41.53
2017-03-16T12:59:04.049Z,41.53
2017-03-16T13:00:09.530Z,44.63
2017-03-16T13:01:15.149Z,47.97
2017-03-16T13:02:21.897Z,39.60
2017-03-16T13:03:27.269Z,43.25
2017-03-16T13:04:32.782Z,44.75
2017-03-16T13:05:38.270Z,45.57
2017-03-16T13:06:44.626Z,48.95
2017-03-16T13:07:50.438Z,42.67
2017-03-16T13:08:56.061Z,44.68
2017-03-16T13:10:01.961Z,45.45
2017-03-16T13:11:07.121Z,44.00
2017-03-16T13:12:12.593Z,37.55
2017-03-16T13:13:18.169Z,40.57
2017-03-16T13:14:23.641Z,42.72
2017-03-16T13:15:29.247Z,47.53
2017-03-16T13:16:35.089Z,42.28
2017-03-16T13:17:41.113Z,43.10
2017-03-16T13:18:46.189Z,39.58
2017-03-16T13:19:51.618Z,42.08
2017-03-16T13:20:58.773Z,45.42
2017-03-16T13:22:03.585Z,45.45
2017-03-16T13:23:10.006Z,44.63
2017-03-16T13:24:15.510Z,37.13
2017-03-16T13:25:21.299Z,46.70
2017-03-16T13:26:26.661Z,42.32
2017-03-16T13:27:32.249Z,47.47
2017-03-16T13:28:37.833Z,37.55
2017-03-16T13:29:43.469Z,43.45
2017-03-16T13:30:48.953Z,45.10
2017-03-16T13:31:55.277Z,38.30
2017-03-16T13:33:00.019Z,45.88
2017-03-16T13:34:05.497Z,43.58
2017-03-16T13:35:10.334Z,39.80
2017-03-16T13:36:15.955Z,42.73
2017-03-16T13:37:21.953Z,51.40
2017-03-16T13:38:27.206Z,43.47
2017-03-16T13:39:32.501Z,39.72
2017-03-16T13:40:38.875Z,45.20
2017-03-16T13:41:43.590Z,43.82
2017-03-16T13:42:49.070Z,47.02
2017-03-16T13:43:55.381Z,41.00
2017-03-16T13:45:00.714Z,41.98
2017-03-16T13:46:05.626Z,48.23
2017-03-16T13:47:10.378Z,47.00
2017-03-16T13:48:17.578Z,44.82
2017-03-16T13:49:22.390Z,37.95
2017-03-16T13:50:27.869Z,41.60
2017-03-16T13:51:34.249Z,45.73
2017-03-16T13:52:39.877Z,43.62
2017-03-16T13:53:44.722Z,40.52
2017-03-16T13:54:50.225Z,44.72
2017-03-16T13:55:56.181Z,39.97
2017-03-16T13:57:02.654Z,45.65
2017-03-16T13:58:08.370Z,44.08
2017-03-16T13:59:14.176Z,45.42
2017-03-16T14:00:18.894Z,37.33
2017-03-16T14:01:24.825Z,38.37
2017-03-16T14:02:29.641Z,39.13
2017-03-16T14:03:35.313Z,39.28
2017-03-16T14:04:40.894Z,40.45
2017-03-16T14:05:46.689Z,39.78
2017-03-16T14:06:53.086Z,47.55